METAR AND TAF INFORMATION

METAR FOR LIRQ
ADDS - METARS form results

(2228 UTC 26 November 2022)
Data provider http://aviationweather.gov/metar/data/
 
METAR text: LIRQ 262220Z VRB02KT CAVOK 10/05 Q1026
Conditions at: LIRQ (FIRENZE/PERETOLA, IT) observed 2220 UTC 26 November 2022
Temperature: 10.0°C (50°F)
Dewpoint: 5.0°C (41°F) [RH = 71%]
Pressure (altimeter): 30.30 inches Hg (1026.0 mb)
Winds: variable direction winds at 2 MPH (2 knots; 1.0 m/s)
Visibility: 6 or more miles (10+ km)
Ceiling: ceiling and visibility are OK
Clouds: unknown
Weather: no significant weather observed at this time

METAR text: LIRQ 262150Z 23003KT 190V280 CAVOK 10/05 Q1026
Conditions at: LIRQ (FIRENZE/PERETOLA, IT) observed 2150 UTC 26 November 2022
Temperature: 10.0°C (50°F)
Dewpoint: 5.0°C (41°F) [RH = 71%]
Pressure (altimeter): 30.30 inches Hg (1026.0 mb)
Winds: from the SW (230 degrees) at 3 MPH (3 knots; 1.5 m/s)
Visibility: 6 or more miles (10+ km)
Ceiling: ceiling and visibility are OK
Clouds: unknown
Weather: no significant weather observed at this time

Forecast for: LIRQ (FIRENZE/PERETOLA, IT)
Text: TAF LIRQ 261700Z 2618/2718 03008KT 9999 SCT040
Forecast period: 1800 UTC 26 November 2022 to 1800 UTC 27 November 2022
Forecast type: FROM: standard forecast or significant change
Winds: from the NNE (30 degrees) at 9 MPH (8 knots; 4.1 m/s)
Visibility: 6 or more miles (10+ km)
Ceiling: at least 12,000 feet AGL
Clouds: scattered clouds at 4000 feet AGL
Weather: no significant weather forecast for this period

 

AIRPORT MAP

 

RUNWAY INFORMATION

Runway 05 Runway length 5425 ft Runway width 98 ft
Runway elevation 123 ft Runway displaced threshold 492 ft Runway heading 48
Runway 23 Runway length 5425 ft Runway width 98 ft
Runway elevation 132 ft Runway displaced threshold 2287 ft Runway heading 228

 

AIRPORT FREQUENCIES

Type APP Name APP Frequency 126.075 MHZ
Type ATIS Name ATIS Frequency 129.35 MHZ
Type TWR Name FIRENZE TW Frequency 118.3 MHZ

 

AIRPORT NEAR NAVIGATION AIDS

Type VOR-DME Name Peretola Frequency 112500 KHZ